Time;durP1;ratioP1;P1;durP2;ratioP2;P2;SDS_P1;SDS_P2;PMS_P1;PMS_P2;Temp;Humidity;BMP_temperature;BMP_pressure;BME280_temperature;BME280_humidity;BME280_pressure;Samples;Min_cycle;Max_cycle;Signal;HPM_P1;HPM_P2
2023/03/05 00:01:37;;;;;;;3.00;1.85;;;5.00;99.90;;;;;;5120510;27;20047;-77
2023/03/05 00:04:04;;;;;;;2.28;1.40;;;4.70;99.90;;;;;;5135312;27;20054;-78
2023/03/05 00:06:31;;;;;;;4.55;1.70;;;4.70;99.90;;;;;;5141080;27;20145;-78
2023/03/05 00:08:57;;;;;;;5.18;2.53;;;4.70;99.90;;;;;;5141416;27;20051;-76
2023/03/05 00:11:26;;;;;;;6.80;1.52;;;4.60;99.90;;;;;;5142082;27;20087;-78
2023/03/05 00:13:53;;;;;;;3.70;2.33;;;4.60;99.90;;;;;;5100632;27;20047;-75
2023/03/05 00:16:19;;;;;;;4.38;1.67;;;4.60;99.90;;;;;;5123388;27;20038;-78
2023/03/05 00:18:45;;;;;;;2.22;1.80;;;4.60;99.90;;;;;;5143054;27;20051;-78
2023/03/05 00:21:27;;;;;;;2.63;1.40;;;4.60;99.90;;;;;;5142947;27;20058;-78
2023/03/05 00:23:54;;;;;;;2.08;1.60;;;4.60;99.90;;;;;;5142167;27;20561;-78
2023/03/05 00:26:22;;;;;;;3.53;1.50;;;4.60;99.90;;;;;;5124602;27;20093;-75
2023/03/05 00:28:50;;;;;;;4.38;1.45;;;4.50;99.90;;;;;;5141133;27;20929;-78
2023/03/05 00:31:22;;;;;;;4.47;1.90;;;4.50;99.90;;;;;;5142315;27;20042;-75
2023/03/05 00:33:53;;;;;;;2.47;1.70;;;4.50;99.90;;;;;;5140270;27;20055;-78
2023/03/05 00:36:18;;;;;;;4.90;1.90;;;4.50;99.90;;;;;;5142187;27;20051;-78
2023/03/05 00:38:44;;;;;;;3.88;2.15;;;4.50;99.90;;;;;;5135847;27;20741;-76
2023/03/05 00:41:10;;;;;;;6.18;2.38;;;4.60;99.90;;;;;;5136168;27;20058;-75
2023/03/05 00:43:35;;;;;;;2.65;1.42;;;4.60;99.90;;;;;;5142683;27;20076;-79
2023/03/05 00:46:01;;;;;;;4.72;1.63;;;4.50;99.90;;;;;;5142469;27;20053;-75
2023/03/05 00:48:27;;;;;;;3.17;1.45;;;4.50;99.90;;;;;;5143516;27;20118;-78
2023/03/05 00:50:53;;;;;;;8.48;1.98;;;4.50;99.90;;;;;;5142409;27;20592;-78
2023/03/05 00:53:19;;;;;;;4.25;1.63;;;4.50;99.90;;;;;;5130466;27;20078;-76
2023/03/05 00:55:44;;;;;;;6.15;1.70;;;4.40;99.90;;;;;;5128750;27;20601;-78
2023/03/05 00:58:10;;;;;;;5.55;2.30;;;4.50;99.90;;;;;;5122161;27;20046;-78
2023/03/05 01:00:36;;;;;;;5.47;2.25;;;4.50;99.90;;;;;;5142205;27;20153;-78
2023/03/05 01:03:02;;;;;;;4.55;1.80;;;4.60;99.90;;;;;;5122410;27;20119;-78
2023/03/05 01:05:28;;;;;;;2.80;1.55;;;4.60;99.90;;;;;;5111743;27;20058;-78
2023/03/05 01:07:54;;;;;;;5.35;1.83;;;4.60;99.90;;;;;;5150863;27;20042;-78
2023/03/05 01:10:25;;;;;;;3.22;1.83;;;4.50;99.90;;;;;;5106795;27;20047;-75
2023/03/05 01:12:52;;;;;;;1.60;1.42;;;4.50;99.90;;;;;;5153969;27;20803;-77
2023/03/05 01:15:18;;;;;;;2.22;1.65;;;4.50;99.90;;;;;;5099753;27;20052;-78
2023/03/05 01:17:44;;;;;;;2.28;1.50;;;4.50;99.90;;;;;;5131902;27;20059;-76
2023/03/05 01:20:13;;;;;;;4.90;1.70;;;4.50;99.90;;;;;;5146257;27;20060;-77
2023/03/05 01:22:39;;;;;;;3.78;1.70;;;4.50;99.90;;;;;;5131847;27;20043;-75
2023/03/05 01:25:05;;;;;;;2.92;1.45;;;4.50;99.90;;;;;;5124814;27;20043;-77
2023/03/05 01:27:31;;;;;;;1.90;1.20;;;4.50;99.90;;;;;;5099000;27;20057;-75
2023/03/05 01:29:57;;;;;;;5.38;2.00;;;4.50;99.90;;;;;;5138255;27;20043;-77
2023/03/05 01:32:22;;;;;;;5.38;1.88;;;4.50;99.90;;;;;;5135838;27;20050;-77
2023/03/05 01:34:48;;;;;;;3.58;1.30;;;4.50;99.90;;;;;;5136774;27;20068;-76
2023/03/05 01:37:14;;;;;;;4.88;1.80;;;4.50;99.90;;;;;;5122706;27;20530;-75
2023/03/05 01:39:39;;;;;;;4.65;1.67;;;4.40;99.90;;;;;;5130397;27;20051;-77
2023/03/05 01:42:05;;;;;;;6.18;1.70;;;4.40;99.90;;;;;;5138921;27;20042;-77
2023/03/05 01:44:32;;;;;;;3.17;2.10;;;4.30;99.90;;;;;;5142745;27;20043;-77
2023/03/05 01:46:58;;;;;;;2.63;1.50;;;4.30;99.90;;;;;;5128284;27;20047;-77
2023/03/05 01:49:29;;;;;;;3.85;1.38;;;4.20;99.90;;;;;;5141728;27;20050;-77
2023/03/05 01:52:18;;;;;;;3.03;1.85;;;4.30;99.90;;;;;;5139149;27;20053;-77
2023/03/05 01:54:50;;;;;;;5.78;1.88;;;4.20;99.90;;;;;;5122013;27;20046;-76
2023/03/05 01:57:21;;;;;;;1.88;1.52;;;4.20;99.90;;;;;;5141708;27;20042;-76
2023/03/05 01:59:52;;;;;;;7.00;1.30;;;4.20;99.90;;;;;;5131791;27;20082;-77
2023/03/05 02:02:20;;;;;;;2.70;1.30;;;4.10;99.90;;;;;;5141103;27;20126;-77
2023/03/05 02:04:54;;;;;;;2.28;1.70;;;4.10;99.90;;;;;;5124495;27;20092;-77
2023/03/05 02:07:21;;;;;;;3.00;1.80;;;4.50;99.90;;;;;;5140110;27;20062;-77
2023/03/05 02:09:47;;;;;;;3.75;1.55;;;4.10;99.90;;;;;;5140024;27;20112;-77
2023/03/05 02:12:14;;;;;;;1.52;1.42;;;4.70;99.90;;;;;;5129157;27;20220;-77
2023/03/05 02:14:41;;;;;;;2.25;1.30;;;4.10;99.90;;;;;;5133676;27;20046;-77
2023/03/05 02:17:09;;;;;;;3.25;2.00;;;4.10;99.90;;;;;;5133757;27;20046;-78
2023/03/05 02:19:46;;;;;;;2.85;1.70;;;4.50;99.90;;;;;;5141776;27;20133;-77
2023/03/05 02:22:21;;;;;;;6.65;2.20;;;4.10;99.90;;;;;;5142056;27;20095;-76
2023/03/05 02:24:46;;;;;;;3.40;1.83;;;4.10;99.90;;;;;;5142781;27;20062;-76
2023/03/05 02:27:13;;;;;;;2.10;1.63;;;4.00;99.90;;;;;;5122885;27;20208;-77
2023/03/05 02:29:45;;;;;;;5.45;1.80;;;4.00;99.90;;;;;;5124999;27;20051;-76
2023/03/05 02:32:11;;;;;;;4.10;1.98;;;4.00;99.90;;;;;;5107955;27;20099;-77
2023/03/05 02:34:37;;;;;;;4.25;2.28;;;3.90;99.90;;;;;;5141581;27;20038;-77
2023/03/05 02:37:04;;;;;;;3.92;1.85;;;3.90;99.90;;;;;;5140270;27;20807;-77
2023/03/05 02:39:32;;;;;;;4.53;2.35;;;3.90;99.90;;;;;;5141276;27;20062;-77
2023/03/05 02:41:58;;;;;;;3.05;1.77;;;3.90;99.90;;;;;;5128931;27;20150;-77
2023/03/05 02:44:24;;;;;;;4.82;2.67;;;3.90;99.90;;;;;;5121352;27;20826;-76
2023/03/05 02:46:49;;;;;;;5.82;2.05;;;4.00;99.90;;;;;;5123353;27;20043;-77
2023/03/05 02:49:15;;;;;;;4.50;1.63;;;3.80;99.90;;;;;;5115545;27;20539;-77
2023/03/05 02:51:41;;;;;;;3.40;2.38;;;4.00;99.90;;;;;;5138976;27;20050;-75
2023/03/05 02:54:06;;;;;;;6.53;1.75;;;3.90;99.90;;;;;;5141299;27;20088;-75
2023/03/05 02:56:32;;;;;;;5.07;1.83;;;4.20;99.90;;;;;;5127596;27;20838;-77
2023/03/05 02:58:58;;;;;;;6.50;2.30;;;3.90;99.90;;;;;;5110987;27;20259;-77
2023/03/05 03:01:26;;;;;;;6.20;2.78;;;3.90;99.90;;;;;;5140540;27;20050;-76
2023/03/05 03:03:53;;;;;;;7.57;2.60;;;4.00;99.90;;;;;;5141891;27;20049;-75
2023/03/05 03:06:19;;;;;;;3.00;1.70;;;3.90;99.90;;;;;;5140903;27;20086;-77
2023/03/05 03:08:45;;;;;;;2.65;1.70;;;4.10;99.90;;;;;;5139712;27;20138;-77
2023/03/05 03:11:13;;;;;;;2.63;1.73;;;3.90;99.90;;;;;;5141691;27;20615;-77
2023/03/05 03:13:40;;;;;;;4.57;2.20;;;3.90;99.90;;;;;;5136340;27;20062;-77
2023/03/05 03:16:11;;;;;;;5.10;1.88;;;3.80;99.90;;;;;;5125263;27;20131;-77
2023/03/05 03:18:37;;;;;;;3.03;2.10;;;3.80;99.90;;;;;;5134155;27;20142;-77
2023/03/05 03:21:04;;;;;;;4.13;2.10;;;3.80;99.90;;;;;;5140111;27;20050;-75
2023/03/05 03:23:30;;;;;;;3.08;1.55;;;3.90;99.90;;;;;;5138684;27;20053;-76
2023/03/05 03:25:56;;;;;;;8.40;2.13;;;3.80;99.90;;;;;;5139003;27;20087;-77
2023/03/05 03:28:22;;;;;;;5.07;2.35;;;3.90;99.90;;;;;;5115857;27;20540;-75
2023/03/05 03:30:47;;;;;;;3.72;1.75;;;3.90;99.90;;;;;;5131478;27;20050;-77
2023/03/05 03:33:13;;;;;;;3.47;1.98;;;3.90;99.90;;;;;;5136667;27;20073;-77
2023/03/05 03:35:39;;;;;;;2.13;1.65;;;4.00;99.90;;;;;;5121957;27;20054;-77
2023/03/05 03:38:05;;;;;;;4.15;2.17;;;4.00;99.90;;;;;;5138491;27;20046;-77
2023/03/05 03:40:31;;;;;;;9.10;2.10;;;4.10;99.90;;;;;;5135797;27;20815;-77
2023/03/05 03:42:56;;;;;;;2.45;2.25;;;4.00;99.90;;;;;;5133556;27;20055;-77
2023/03/05 03:45:24;;;;;;;3.85;1.73;;;4.10;99.90;;;;;;5100253;27;20088;-76
2023/03/05 03:47:50;;;;;;;4.65;2.15;;;4.00;99.90;;;;;;5134619;27;20090;-76
2023/03/05 03:50:17;;;;;;;3.40;2.22;;;4.00;99.90;;;;;;5128490;27;20147;-78
2023/03/05 03:52:43;;;;;;;4.47;2.10;;;3.90;99.90;;;;;;5140449;27;20045;-77
2023/03/05 03:55:09;;;;;;;4.82;1.88;;;3.90;99.90;;;;;;5140135;27;20038;-77
2023/03/05 03:57:36;;;;;;;3.78;2.25;;;3.90;99.90;;;;;;5140609;27;20494;-77
2023/03/05 04:00:05;;;;;;;7.15;2.00;;;3.80;99.90;;;;;;5119988;27;20187;-76
2023/03/05 04:02:31;;;;;;;3.38;1.85;;;3.80;99.90;;;;;;5122795;27;20055;-78
2023/03/05 04:04:57;;;;;;;5.93;2.00;;;3.70;99.90;;;;;;5134036;27;20166;-77
2023/03/05 04:07:23;;;;;;;4.05;1.73;;;3.70;99.90;;;;;;5130904;27;20053;-77
2023/03/05 04:09:49;;;;;;;6.22;2.35;;;3.70;99.90;;;;;;5133447;27;20498;-77
2023/03/05 04:12:17;;;;;;;4.88;2.08;;;3.70;99.90;;;;;;5135036;27;20092;-77
2023/03/05 04:14:46;;;;;;;3.53;2.20;;;3.70;99.90;;;;;;5122267;27;20092;-76
2023/03/05 04:17:13;;;;;;;6.18;2.03;;;4.20;99.90;;;;;;5139241;27;20134;-77
2023/03/05 04:19:39;;;;;;;4.43;2.00;;;3.70;99.90;;;;;;5113569;27;20046;-76
2023/03/05 04:22:09;;;;;;;3.40;1.98;;;3.70;99.90;;;;;;5140388;27;20049;-77
2023/03/05 04:24:35;;;;;;;3.03;1.90;;;3.70;99.90;;;;;;5139121;27;20114;-77
2023/03/05 04:27:01;;;;;;;4.07;2.10;;;3.70;99.90;;;;;;5137139;27;20045;-77
2023/03/05 04:29:26;;;;;;;7.95;1.92;;;3.70;99.90;;;;;;5133704;27;20051;-78
2023/03/05 04:31:52;;;;;;;8.88;1.70;;;3.70;99.90;;;;;;5126143;27;20079;-77
2023/03/05 04:34:18;;;;;;;3.63;2.15;;;3.60;99.90;;;;;;5122409;27;20043;-78
2023/03/05 04:36:44;;;;;;;3.05;1.65;;;3.60;99.90;;;;;;5127356;27;20162;-76
2023/03/05 04:39:09;;;;;;;3.25;1.70;;;3.90;99.90;;;;;;5121919;27;20154;-75
2023/03/05 04:41:35;;;;;;;3.47;1.50;;;4.20;99.90;;;;;;5137250;27;20138;-77
2023/03/05 04:44:01;;;;;;;4.45;2.13;;;3.50;99.90;;;;;;5140656;27;20099;-77
2023/03/05 04:46:26;;;;;;;6.90;1.90;;;3.90;99.90;;;;;;5120483;27;20507;-78
2023/03/05 04:48:52;;;;;;;5.00;2.03;;;3.50;99.90;;;;;;5137518;27;20038;-76
2023/03/05 04:51:18;;;;;;;3.63;2.20;;;3.60;99.90;;;;;;5128793;27;20533;-77
2023/03/05 04:53:44;;;;;;;2.85;1.60;;;3.80;99.90;;;;;;5140123;27;20499;-77
2023/03/05 04:56:09;;;;;;;4.10;2.13;;;3.40;99.90;;;;;;5144534;27;20066;-75
2023/03/05 04:58:35;;;;;;;2.72;1.80;;;3.50;99.90;;;;;;5124273;27;20050;-76
2023/03/05 05:01:03;;;;;;;5.22;1.85;;;3.90;99.90;;;;;;5144158;27;20099;-77
2023/03/05 05:03:29;;;;;;;5.68;1.83;;;3.50;99.90;;;;;;5141602;27;20046;-76
2023/03/05 05:05:56;;;;;;;3.22;1.33;;;3.50;99.90;;;;;;5132659;27;20422;-76
2023/03/05 05:08:22;;;;;;;4.40;2.10;;;3.70;99.90;;;;;;5143150;27;20053;-77
2023/03/05 05:11:00;;;;;;;3.95;1.90;;;3.40;99.90;;;;;;5122398;27;20955;-78
2023/03/05 05:13:26;;;;;;;6.07;2.35;;;3.40;99.90;;;;;;5141912;27;20752;-77
2023/03/05 05:15:52;;;;;;;3.53;1.80;;;3.40;99.90;;;;;;5144148;27;20112;-78
2023/03/05 05:18:18;;;;;;;4.70;2.50;;;3.40;99.90;;;;;;5136956;27;20039;-78
2023/03/05 05:20:43;;;;;;;3.17;1.83;;;3.40;99.90;;;;;;5143789;27;20272;-78
2023/03/05 05:23:09;;;;;;;4.45;1.95;;;3.70;99.90;;;;;;5131110;27;20154;-75
2023/03/05 05:25:35;;;;;;;3.15;1.90;;;3.40;99.90;;;;;;5123279;27;20764;-75
2023/03/05 05:28:00;;;;;;;2.53;1.77;;;4.20;99.90;;;;;;5140721;27;20050;-76
2023/03/05 05:30:26;;;;;;;6.07;2.47;;;3.50;99.90;;;;;;5143222;27;20046;-77
2023/03/05 05:32:52;;;;;;;3.53;2.10;;;3.50;99.90;;;;;;5142310;27;20523;-77
2023/03/05 05:35:17;;;;;;;4.65;1.95;;;3.60;99.90;;;;;;5141856;27;20078;-78
2023/03/05 05:37:43;;;;;;;3.30;1.70;;;3.50;99.90;;;;;;5141238;27;20414;-77
2023/03/05 05:40:09;;;;;;;5.43;1.40;;;3.50;99.90;;;;;;5129650;27;20055;-78
2023/03/05 05:42:35;;;;;;;6.97;1.80;;;3.50;99.90;;;;;;5141784;27;20335;-76
2023/03/05 05:45:01;;;;;;;3.33;1.30;;;3.40;99.90;;;;;;5141812;27;20470;-77
2023/03/05 05:47:28;;;;;;;2.00;1.50;;;3.40;99.90;;;;;;5140274;27;20050;-78
2023/03/05 05:49:54;;;;;;;2.17;1.20;;;3.40;99.90;;;;;;5115332;27;20116;-79
2023/03/05 05:52:20;;;;;;;4.55;1.45;;;3.40;99.90;;;;;;5138640;27;20097;-77
2023/03/05 05:54:46;;;;;;;3.05;1.40;;;3.40;99.90;;;;;;5143208;27;20041;-78
2023/03/05 05:57:13;;;;;;;3.00;1.50;;;3.60;99.90;;;;;;5140824;27;20122;-78
2023/03/05 05:59:39;;;;;;;1.92;1.33;;;3.50;99.90;;;;;;5123931;27;20039;-77
2023/03/05 06:02:06;;;;;;;2.30;1.00;;;3.50;99.90;;;;;;5120963;27;20046;-76
2023/03/05 06:04:33;;;;;;;4.82;1.50;;;3.50;99.90;;;;;;5139857;27;20046;-78
2023/03/05 06:06:59;;;;;;;3.15;1.67;;;3.40;99.90;;;;;;5121008;27;20435;-77
2023/03/05 06:09:25;;;;;;;2.90;1.25;;;3.50;99.90;;;;;;5113138;27;20054;-78
2023/03/05 06:11:51;;;;;;;7.60;1.40;;;3.40;99.90;;;;;;5135451;27;20046;-78
2023/03/05 06:14:17;;;;;;;4.45;1.20;;;3.40;99.90;;;;;;5129748;27;20534;-78
2023/03/05 06:16:43;;;;;;;4.35;1.20;;;3.30;99.90;;;;;;5122402;27;20092;-77
2023/03/05 06:19:14;;;;;;;1.30;1.08;;;3.30;99.90;;;;;;5142419;27;20071;-77
2023/03/05 06:21:40;;;;;;;3.22;1.15;;;4.20;99.90;;;;;;5140461;27;20178;-78
2023/03/05 06:24:06;;;;;;;2.45;1.20;;;3.20;99.90;;;;;;5122826;27;20058;-76
2023/03/05 06:26:32;;;;;;;2.58;1.52;;;3.20;99.90;;;;;;5141185;27;20307;-77
2023/03/05 06:28:58;;;;;;;1.95;0.98;;;3.10;99.90;;;;;;5141056;27;20601;-78
2023/03/05 06:31:25;;;;;;;1.77;0.90;;;3.20;99.90;;;;;;5137012;27;20481;-77
2023/03/05 06:33:54;;;;;;;1.58;1.02;;;3.40;99.90;;;;;;5137678;27;20073;-78
2023/03/05 06:36:21;;;;;;;2.63;0.90;;;3.10;99.90;;;;;;5134243;27;20064;-77
2023/03/05 06:38:48;;;;;;;1.30;1.10;;;3.10;99.90;;;;;;5139137;27;20118;-78
2023/03/05 06:41:17;;;;;;;1.95;1.20;;;3.10;99.90;;;;;;5138034;27;20149;-78
2023/03/05 06:43:44;;;;;;;3.70;1.40;;;3.10;99.90;;;;;;5138070;27;20757;-77
2023/03/05 06:46:16;;;;;;;4.32;1.52;;;3.10;99.90;;;;;;5120255;27;20057;-78
2023/03/05 06:48:42;;;;;;;2.83;1.48;;;3.10;99.90;;;;;;5136417;27;20043;-75
2023/03/05 06:51:17;;;;;;;3.65;1.20;;;3.10;99.90;;;;;;5119897;27;20081;-78
2023/03/05 06:53:44;;;;;;;2.08;1.52;;;3.10;99.90;;;;;;5138409;27;20050;-76
2023/03/05 06:56:10;;;;;;;3.70;1.40;;;3.30;99.90;;;;;;5138795;27;20582;-78
2023/03/05 06:58:35;;;;;;;4.15;1.90;;;3.20;99.90;;;;;;5134247;27;20102;-77
2023/03/05 07:01:05;;;;;;;2.95;1.23;;;3.30;99.90;;;;;;5137007;27;20230;-77
2023/03/05 07:03:31;;;;;;;3.50;1.83;;;3.20;99.90;;;;;;5137508;27;20047;-78
2023/03/05 07:05:56;;;;;;;1.42;1.33;;;4.00;99.90;;;;;;5137764;27;20495;-78
2023/03/05 07:08:22;;;;;;;3.08;1.42;;;3.70;99.90;;;;;;5119149;27;20077;-77
2023/03/05 07:10:47;;;;;;;3.78;1.50;;;3.40;99.90;;;;;;5135397;27;20053;-78
2023/03/05 07:13:13;;;;;;;2.88;1.50;;;3.30;99.90;;;;;;5138852;27;20482;-78
2023/03/05 07:15:40;;;;;;;3.88;1.73;;;3.40;99.90;;;;;;5097550;27;20810;-78
2023/03/05 07:18:06;;;;;;;4.45;1.40;;;3.50;99.90;;;;;;5117499;27;20083;-79
2023/03/05 07:20:35;;;;;;;2.88;1.88;;;3.60;99.90;;;;;;5133636;27;20055;-77
2023/03/05 07:23:01;;;;;;;4.15;1.60;;;3.90;99.90;;;;;;5120387;27;20360;-79
2023/03/05 07:25:27;;;;;;;3.03;2.08;;;3.80;99.90;;;;;;5120817;27;20130;-76
2023/03/05 07:27:53;;;;;;;4.07;1.85;;;3.80;99.90;;;;;;5137816;27;20046;-77
2023/03/05 07:30:19;;;;;;;5.45;1.80;;;3.90;99.90;;;;;;5121813;27;20113;-77
2023/03/05 07:32:44;;;;;;;3.03;1.70;;;4.00;99.90;;;;;;5140507;27;20080;-76
2023/03/05 07:35:10;;;;;;;5.85;1.98;;;4.10;99.90;;;;;;5132721;27;20043;-76
2023/03/05 07:37:37;;;;;;;5.38;1.60;;;4.10;99.90;;;;;;5118933;27;20151;-76
2023/03/05 07:40:03;;;;;;;2.92;1.65;;;4.20;99.90;;;;;;5140809;27;20518;-74
2023/03/05 07:42:29;;;;;;;4.28;1.85;;;4.30;99.90;;;;;;5132702;27;20038;-74
2023/03/05 07:44:55;;;;;;;2.10;1.90;;;4.50;99.90;;;;;;5132480;27;20042;-75
2023/03/05 07:47:22;;;;;;;4.18;2.00;;;4.50;99.90;;;;;;5135041;27;20050;-75
2023/03/05 07:49:48;;;;;;;7.50;2.20;;;4.50;99.90;;;;;;5128796;27;20043;-75
2023/03/05 07:52:14;;;;;;;4.55;2.03;;;4.60;99.90;;;;;;5116743;27;20058;-75
2023/03/05 07:54:40;;;;;;;2.35;2.05;;;4.70;99.90;;;;;;5101877;28;20407;-75
2023/03/05 07:57:07;;;;;;;4.05;1.85;;;4.80;99.90;;;;;;5117345;27;20064;-75
2023/03/05 07:59:34;;;;;;;5.70;2.28;;;4.90;99.90;;;;;;5139706;27;20058;-75
2023/03/05 08:02:00;;;;;;;3.95;1.75;;;5.00;99.90;;;;;;5139441;27;20146;-76
2023/03/05 08:04:26;;;;;;;5.70;2.25;;;5.00;99.90;;;;;;5141226;27;20115;-75
2023/03/05 08:06:52;;;;;;;5.32;2.40;;;5.10;99.90;;;;;;5119628;27;20553;-77
2023/03/05 08:09:18;;;;;;;6.97;2.10;;;5.20;99.90;;;;;;5113322;27;20081;-75
2023/03/05 08:11:44;;;;;;;4.68;2.30;;;5.20;99.90;;;;;;5138174;27;20050;-74
2023/03/05 08:14:11;;;;;;;3.28;1.83;;;5.40;99.90;;;;;;5138224;27;20053;-75
2023/03/05 08:16:38;;;;;;;4.55;2.17;;;5.30;99.90;;;;;;5138563;27;20372;-73
2023/03/05 08:19:03;;;;;;;5.90;2.20;;;5.40;99.90;;;;;;5138207;27;20878;-74
2023/03/05 08:21:35;;;;;;;5.85;1.60;;;5.40;99.90;;;;;;5137873;27;20034;-75
2023/03/05 08:24:06;;;;;;;5.32;1.60;;;5.50;99.90;;;;;;5139666;27;20089;-75
2023/03/05 08:26:34;;;;;;;4.43;1.98;;;5.50;99.90;;;;;;5133568;27;20055;-75
2023/03/05 08:28:59;;;;;;;2.90;1.80;;;5.60;99.90;;;;;;5141522;27;20047;-75
2023/03/05 08:31:26;;;;;;;3.60;1.50;;;5.60;99.90;;;;;;5142283;27;20050;-75
2023/03/05 08:33:54;;;;;;;4.45;2.25;;;5.70;99.90;;;;;;5142586;27;20031;-75
2023/03/05 08:36:20;;;;;;;4.20;1.42;;;5.60;99.90;;;;;;5124132;27;20038;-74
2023/03/05 08:38:47;;;;;;;4.32;1.90;;;5.70;99.90;;;;;;5142099;27;20043;-75
2023/03/05 08:41:15;;;;;;;2.75;1.58;;;5.70;99.90;;;;;;5140152;27;20058;-76
2023/03/05 08:43:40;;;;;;;6.60;2.78;;;5.80;99.90;;;;;;5139991;27;20061;-75
2023/03/05 08:46:07;;;;;;;6.15;1.90;;;5.80;99.90;;;;;;5141773;27;20035;-75
2023/03/05 08:48:33;;;;;;;7.35;1.70;;;5.90;99.90;;;;;;5123682;27;20030;-74
2023/03/05 08:51:09;;;;;;;3.45;1.55;;;6.00;99.90;;;;;;5138590;27;20585;-75
2023/03/05 08:53:35;;;;;;;6.13;1.65;;;6.10;99.90;;;;;;5144091;27;20055;-74
2023/03/05 08:56:01;;;;;;;4.88;1.63;;;6.30;99.90;;;;;;5141692;27;20051;-76
2023/03/05 08:58:27;;;;;;;2.25;1.38;;;6.40;99.90;;;;;;5141777;27;20047;-74
2023/03/05 09:00:52;;;;;;;3.35;1.55;;;6.50;99.90;;;;;;5143291;27;20046;-74
2023/03/05 09:03:18;;;;;;;6.82;1.83;;;6.50;99.90;;;;;;5141633;27;20070;-75
2023/03/05 09:05:44;;;;;;;5.82;1.60;;;6.70;99.90;;;;;;5142493;27;20055;-75
2023/03/05 09:08:10;;;;;;;3.05;1.38;;;6.80;99.90;;;;;;5142575;27;20046;-75
2023/03/05 09:10:36;;;;;;;2.17;1.27;;;6.70;99.90;;;;;;5137078;27;20483;-75
2023/03/05 09:13:03;;;;;;;3.83;1.80;;;6.80;99.90;;;;;;5140587;27;20130;-76
2023/03/05 09:15:30;;;;;;;5.30;1.90;;;7.00;99.90;;;;;;5141885;27;20714;-77
2023/03/05 09:17:56;;;;;;;3.97;1.10;;;7.10;99.90;;;;;;5125043;27;20522;-76
2023/03/05 09:20:22;;;;;;;2.83;1.50;;;7.30;99.90;;;;;;5143489;27;20050;-76
2023/03/05 09:22:47;;;;;;;7.03;1.40;;;7.20;99.90;;;;;;5143413;27;20618;-77
2023/03/05 09:25:13;;;;;;;2.63;1.35;;;7.10;99.90;;;;;;5141686;27;20074;-76
2023/03/05 09:27:39;;;;;;;3.53;1.60;;;7.00;99.90;;;;;;5139359;27;20827;-76
2023/03/05 09:30:05;;;;;;;3.40;1.88;;;7.30;99.90;;;;;;5137289;27;20043;-75
2023/03/05 09:32:31;;;;;;;1.48;1.33;;;8.10;99.90;;;;;;5116738;27;20042;-77
2023/03/05 09:34:57;;;;;;;4.22;1.65;;;9.10;99.90;;;;;;5139108;27;20045;-78
2023/03/05 09:37:24;;;;;;;1.48;1.00;;;9.70;99.90;;;;;;5126025;27;20047;-74
2023/03/05 09:39:49;;;;;;;6.18;1.48;;;9.90;99.90;;;;;;5126323;27;20047;-75
2023/03/05 09:42:45;;;;;;;1.42;1.10;;;9.40;99.90;;;;;;5132284;27;20051;-74
2023/03/05 09:45:26;;;;;;;2.08;0.77;;;8.20;99.90;;;;;;5135423;27;20471;-74
2023/03/05 09:48:15;;;;;;;2.42;0.98;;;7.50;99.90;;;;;;5139603;27;20042;-74
2023/03/05 09:50:51;;;;;;;0.98;0.93;;;7.00;99.90;;;;;;5138954;27;20505;-75
2023/03/05 09:53:39;;;;;;;1.10;0.90;;;6.80;99.90;;;;;;5103949;27;20047;-75
2023/03/05 09:56:15;;;;;;;6.95;0.90;;;6.80;99.90;;;;;;5137851;27;20039;-75
2023/03/05 09:59:17;;;;;;;1.83;0.90;;;7.10;99.90;;;;;;5139247;27;20054;-74
2023/03/05 10:01:44;;;;;;;1.88;1.10;;;7.40;99.90;;;;;;5106337;27;20419;-77
2023/03/05 10:04:24;;;;;;;5.40;1.38;;;7.50;99.90;;;;;;5121221;27;20311;-74
2023/03/05 10:07:07;;;;;;;0.63;0.60;;;7.30;99.90;;;;;;5138951;27;20387;-74
2023/03/05 10:10:02;;;;;;;1.23;0.90;;;7.50;99.90;;;;;;5117017;27;20125;-76
2023/03/05 10:12:31;;;;;;;3.65;1.00;;;7.90;99.90;;;;;;5138076;27;20284;-76
2023/03/05 10:14:59;;;;;;;2.53;0.95;;;8.40;99.90;;;;;;5140315;27;20051;-75
2023/03/05 10:18:00;;;;;;;2.67;1.00;;;8.90;99.90;;;;;;5119862;27;20095;-75
2023/03/05 10:20:56;;;;;;;4.57;0.85;;;9.80;99.90;;;;;;5140377;27;20043;-76
2023/03/05 10:23:34;;;;;;;1.25;0.75;;;11.10;99.90;;;;;;5121402;27;20057;-75
2023/03/05 10:26:24;;;;;;;1.42;1.20;;;11.70;99.90;;;;;;5140793;27;20046;-76
2023/03/05 10:29:04;;;;;;;0.90;0.80;;;11.40;99.90;;;;;;5138150;27;20391;-77
2023/03/05 10:31:40;;;;;;;2.70;1.00;;;11.00;99.90;;;;;;5141513;27;20047;-77
2023/03/05 10:34:37;;;;;;;3.60;0.90;;;11.70;99.90;;;;;;5141180;27;20095;-78
2023/03/05 10:37:15;;;;;;;2.55;1.05;;;11.90;99.90;;;;;;5112533;27;20062;-77
2023/03/05 10:40:11;;;;;;;4.00;1.63;;;12.20;99.70;;;;;;5142512;27;20050;-78
2023/03/05 10:42:55;;;;;;;3.50;1.67;;;12.10;99.20;;;;;;5111522;27;20042;-78
2023/03/05 10:45:26;;;;;;;1.90;0.85;;;12.20;99.90;;;;;;5139228;27;20039;-78
2023/03/05 10:48:06;;;;;;;2.72;1.02;;;12.00;99.90;;;;;;5134254;27;20046;-78
2023/03/05 10:50:45;;;;;;;2.33;1.10;;;11.80;98.70;;;;;;5108971;27;20054;-78
2023/03/05 10:53:44;;;;;;;2.38;1.00;;;11.90;98.20;;;;;;5142715;27;20051;-75
2023/03/05 10:56:11;;;;;;;2.67;1.13;;;11.80;96.70;;;;;;5103566;27;20135;-78
2023/03/05 10:58:37;;;;;;;3.03;1.38;;;11.00;99.90;;;;;;5122973;27;20050;-77
2023/03/05 11:01:20;;;;;;;2.72;0.90;;;10.10;99.90;;;;;;5141206;27;20046;-77
2023/03/05 11:03:52;;;;;;;1.95;0.90;;;9.60;99.90;;;;;;5137557;27;20211;-78
2023/03/05 11:06:28;;;;;;;1.77;1.25;;;9.20;99.90;;;;;;5098371;27;20062;-78
2023/03/05 11:08:55;;;;;;;1.75;1.63;;;9.10;99.90;;;;;;5134697;27;20093;-76
2023/03/05 11:11:22;;;;;;;5.13;1.10;;;9.10;99.90;;;;;;5101605;27;20526;-76
2023/03/05 11:13:54;;;;;;;3.67;1.13;;;9.10;99.90;;;;;;5108622;27;20081;-78
2023/03/05 11:16:24;;;;;;;2.72;1.15;;;8.90;99.90;;;;;;5138151;27;20093;-77
2023/03/05 11:19:21;;;;;;;1.65;0.95;;;8.60;99.90;;;;;;5111072;27;20149;-78
2023/03/05 11:22:09;;;;;;;2.50;0.93;;;8.40;99.90;;;;;;5094634;27;20059;-76
2023/03/05 11:24:36;;;;;;;2.17;0.85;;;8.30;99.90;;;;;;5119677;27;20487;-76
2023/03/05 11:27:19;;;;;;;2.22;0.93;;;8.20;99.90;;;;;;5134914;27;20043;-77
2023/03/05 11:29:47;;;;;;;2.03;1.00;;;8.10;99.90;;;;;;5115544;27;20042;-76
2023/03/05 11:32:24;;;;;;;3.05;1.08;;;8.10;99.90;;;;;;5134292;27;20038;-75
2023/03/05 11:34:51;;;;;;;1.65;0.80;;;8.20;99.90;;;;;;5134080;27;20574;-74
2023/03/05 11:37:31;;;;;;;2.00;1.00;;;8.30;99.90;;;;;;5131836;27;20038;-74
2023/03/05 11:40:22;;;;;;;3.00;1.10;;;8.40;99.90;;;;;;5116272;27;20127;-76
2023/03/05 11:42:57;;;;;;;2.15;1.45;;;8.60;99.90;;;;;;5134529;27;20074;-77
2023/03/05 11:45:25;;;;;;;5.65;1.40;;;8.60;99.80;;;;;;5117032;27;20046;-76
2023/03/05 11:48:08;;;;;;;1.17;1.02;;;8.90;99.90;;;;;;5135854;27;20127;-77
2023/03/05 11:50:36;;;;;;;2.13;0.63;;;9.00;99.90;;;;;;5134641;27;20069;-75
2023/03/05 11:53:28;;;;;;;3.65;1.25;;;9.20;99.90;;;;;;5134171;27;20050;-75
2023/03/05 11:56:06;;;;;;;2.38;1.50;;;9.30;99.90;;;;;;5133505;27;20053;-73
2023/03/05 11:58:38;;;;;;;3.00;1.10;;;9.20;99.90;;;;;;5134827;27;20042;-76
2023/03/05 12:01:14;;;;;;;3.17;1.02;;;9.00;99.90;;;;;;5134743;27;20066;-75
2023/03/05 12:03:40;;;;;;;4.57;0.90;;;8.80;99.90;;;;;;5138900;27;20050;-74
2023/03/05 12:06:06;;;;;;;6.05;1.10;;;8.60;99.90;;;;;;5140585;27;20121;-77
2023/03/05 12:08:36;;;;;;;4.35;1.10;;;8.50;99.90;;;;;;5137899;27;20054;-76
2023/03/05 12:11:18;;;;;;;2.38;1.70;;;8.40;99.90;;;;;;5138195;27;20057;-75
2023/03/05 12:13:50;;;;;;;2.20;0.98;;;8.50;99.90;;;;;;5139409;27;20050;-76
2023/03/05 12:16:19;;;;;;;4.07;1.40;;;8.70;99.90;;;;;;5140300;27;20035;-77
2023/03/05 12:19:04;;;;;;;2.05;1.13;;;8.80;99.90;;;;;;5139325;27;20051;-76
2023/03/05 12:21:36;;;;;;;1.90;1.10;;;8.60;99.90;;;;;;5116761;27;20079;-77
2023/03/05 12:24:21;;;;;;;4.80;1.30;;;8.50;99.90;;;;;;5136927;27;20073;-77
2023/03/05 12:27:02;;;;;;;4.43;0.88;;;8.30;99.90;;;;;;5143433;27;20126;-77
2023/03/05 12:29:48;;;;;;;1.70;1.60;;;8.20;99.90;;;;;;5143352;27;20043;-76
2023/03/05 12:32:30;;;;;;;1.67;1.20;;;8.10;99.90;;;;;;5137696;27;20115;-76
2023/03/05 12:35:21;;;;;;;2.85;1.20;;;8.10;99.90;;;;;;5137216;27;20094;-74
2023/03/05 12:37:58;;;;;;;2.40;1.02;;;8.10;99.90;;;;;;5135613;27;20043;-77
2023/03/05 12:40:34;;;;;;;4.53;1.40;;;8.20;99.90;;;;;;5140689;27;20147;-75
2023/03/05 12:43:04;;;;;;;1.52;1.20;;;8.20;99.90;;;;;;5138423;27;20058;-76
2023/03/05 12:45:34;;;;;;;3.65;1.52;;;8.10;99.90;;;;;;5137811;27;20050;-76
2023/03/05 12:47:59;;;;;;;6.65;1.67;;;8.00;99.90;;;;;;5139815;27;20055;-76
2023/03/05 12:50:28;;;;;;;1.23;1.00;;;8.00;99.90;;;;;;5137809;27;20612;-74
2023/03/05 12:52:58;;;;;;;1.60;1.10;;;8.00;99.90;;;;;;5120067;27;20158;-77
2023/03/05 12:55:32;;;;;;;2.67;1.10;;;8.00;99.90;;;;;;5138736;27;20070;-75
2023/03/05 12:58:18;;;;;;;1.13;0.90;;;8.00;99.90;;;;;;5136275;27;20046;-76
2023/03/05 13:00:45;;;;;;;2.10;1.05;;;7.90;99.90;;;;;;5138359;27;20050;-76
2023/03/05 13:03:21;;;;;;;2.28;1.30;;;7.90;99.90;;;;;;5120347;27;20225;-73
2023/03/05 13:05:55;;;;;;;3.72;1.40;;;8.00;99.90;;;;;;5139655;27;20110;-76
2023/03/05 13:08:30;;;;;;;1.75;1.23;;;8.10;99.90;;;;;;5140006;27;20485;-75
2023/03/05 13:11:06;;;;;;;2.95;1.02;;;8.20;99.90;;;;;;5130094;27;20086;-77